createdAt,value
2022-12-17T00:02:04.583Z,19.43
2022-12-17T00:04:49.401Z,17.93
2022-12-17T00:07:36.963Z,17.97
2022-12-17T00:10:22.383Z,18.03
2022-12-17T00:13:09.143Z,17.20
2022-12-17T00:15:54.579Z,16.70
2022-12-17T00:18:41.334Z,18.53
2022-12-17T00:21:39.202Z,17.27
2022-12-17T00:24:24.678Z,18.70
2022-12-17T00:27:09.796Z,17.77
2022-12-17T00:29:56.324Z,17.73
2022-12-17T00:32:43.827Z,19.10
2022-12-17T00:35:29.796Z,19.23
2022-12-17T00:38:14.768Z,18.90
2022-12-17T00:40:59.685Z,19.60
2022-12-17T00:43:45.071Z,19.60
2022-12-17T00:46:31.148Z,19.93
2022-12-17T00:49:16.310Z,17.60
2022-12-17T00:52:01.363Z,18.87
2022-12-17T00:54:47.767Z,19.03
2022-12-17T00:57:47.095Z,19.83
2022-12-17T01:00:33.558Z,17.43
2022-12-17T01:03:27.923Z,19.87
2022-12-17T01:06:13.146Z,18.30
2022-12-17T01:08:58.444Z,18.90
2022-12-17T01:11:43.226Z,18.30
2022-12-17T01:14:28.609Z,18.60
2022-12-17T01:17:14.448Z,18.53
2022-12-17T01:20:00.783Z,17.60
2022-12-17T01:22:45.964Z,17.97
2022-12-17T01:25:32.263Z,18.07
2022-12-17T01:28:17.068Z,17.77
2022-12-17T01:31:02.150Z,17.13
2022-12-17T01:33:47.212Z,18.83
2022-12-17T01:36:33.831Z,19.13
2022-12-17T01:39:18.691Z,18.20
2022-12-17T01:42:03.864Z,18.17
2022-12-17T01:45:05.948Z,17.70
2022-12-17T01:47:53.335Z,17.70
2022-12-17T01:50:42.652Z,18.40
2022-12-17T01:53:29.649Z,18.43
2022-12-17T01:56:16.024Z,15.10
2022-12-17T01:59:02.426Z,17.53
2022-12-17T02:01:47.631Z,19.43
2022-12-17T02:04:33.014Z,19.03
2022-12-17T02:07:24.977Z,18.50
2022-12-17T02:10:14.529Z,17.37
2022-12-17T02:13:03.312Z,19.03
2022-12-17T02:15:52.409Z,18.33
2022-12-17T02:18:40.211Z,18.90
2022-12-17T02:21:26.761Z,17.67
2022-12-17T02:24:15.038Z,18.73
2022-12-17T02:27:18.840Z,19.37
2022-12-17T02:30:06.565Z,18.57
2022-12-17T02:32:53.714Z,20.20
2022-12-17T02:35:43.955Z,18.10
2022-12-17T02:38:35.914Z,18.77
2022-12-17T02:41:22.889Z,19.33
2022-12-17T02:44:10.178Z,17.20
2022-12-17T02:46:56.060Z,17.87
2022-12-17T02:49:42.601Z,15.77
2022-12-17T02:52:33.287Z,18.30
2022-12-17T02:55:20.122Z,18.40
2022-12-17T02:58:06.164Z,18.70
2022-12-17T03:00:52.451Z,19.37
2022-12-17T03:03:38.484Z,18.03
2022-12-17T03:06:23.953Z,19.27
2022-12-17T03:09:08.837Z,18.70
2022-12-17T03:11:54.762Z,18.73
2022-12-17T03:14:39.534Z,18.93
2022-12-17T03:17:25.714Z,20.27
2022-12-17T03:20:19.002Z,20.30
2022-12-17T03:23:04.462Z,18.77
2022-12-17T03:25:49.862Z,17.03
2022-12-17T03:28:35.134Z,17.63
2022-12-17T03:31:20.315Z,17.87
2022-12-17T03:34:06.936Z,16.57
2022-12-17T03:36:51.828Z,18.33
2022-12-17T03:39:36.706Z,17.67
2022-12-17T03:42:21.609Z,15.33
2022-12-17T03:45:06.407Z,17.57
2022-12-17T03:47:51.375Z,18.00
2022-12-17T03:50:37.554Z,19.30
2022-12-17T03:53:22.936Z,17.20
2022-12-17T03:56:08.540Z,17.80
2022-12-17T03:58:53.288Z,18.37
2022-12-17T04:01:38.389Z,12.23
2022-12-17T04:04:23.460Z,14.67
2022-12-17T04:07:09.698Z,17.33
2022-12-17T04:09:54.617Z,14.97
2022-12-17T04:12:39.489Z,15.50
2022-12-17T04:15:25.113Z,17.23
2022-12-17T04:18:10.416Z,16.57
2022-12-17T04:20:55.339Z,16.63
2022-12-17T04:23:44.991Z,15.23
2022-12-17T04:26:29.802Z,17.37
2022-12-17T04:29:14.636Z,17.67
2022-12-17T04:31:59.770Z,17.33
2022-12-17T04:34:44.713Z,16.57
2022-12-17T04:37:29.688Z,15.23
2022-12-17T04:40:15.822Z,17.23
2022-12-17T04:43:00.762Z,17.80
2022-12-17T04:45:45.672Z,16.07
2022-12-17T04:48:34.028Z,16.83
2022-12-17T04:51:18.846Z,15.47
2022-12-17T04:54:03.637Z,16.10
2022-12-17T04:56:49.973Z,15.83
2022-12-17T04:59:36.354Z,16.40
2022-12-17T05:02:21.732Z,15.60
2022-12-17T05:05:18.330Z,16.27
2022-12-17T05:08:03.535Z,18.77
2022-12-17T05:10:48.379Z,19.07
2022-12-17T05:13:35.149Z,15.63
2022-12-17T05:16:20.613Z,18.30
2022-12-17T05:19:05.711Z,17.10
2022-12-17T05:21:50.588Z,19.13
2022-12-17T05:24:35.730Z,18.17
2022-12-17T05:27:20.490Z,17.93
2022-12-17T05:30:06.655Z,19.00
2022-12-17T05:32:51.784Z,18.53
2022-12-17T05:35:36.844Z,15.50
2022-12-17T05:38:22.791Z,18.17
2022-12-17T05:41:07.744Z,19.57
2022-12-17T05:43:52.496Z,18.40
2022-12-17T05:46:39.130Z,18.80
2022-12-17T05:49:24.222Z,19.37
2022-12-17T05:52:09.038Z,18.63
2022-12-17T05:55:05.260Z,16.93
2022-12-17T05:57:55.998Z,18.57
2022-12-17T06:00:41.795Z,18.50
2022-12-17T06:03:28.706Z,19.40
2022-12-17T06:06:14.539Z,18.03
2022-12-17T06:08:59.393Z,19.17
2022-12-17T06:11:44.249Z,18.67
2022-12-17T06:14:29.229Z,19.47
2022-12-17T06:17:14.147Z,18.93
2022-12-17T06:20:00.373Z,18.87
2022-12-17T06:22:45.474Z,18.07
2022-12-17T06:25:30.527Z,19.93
2022-12-17T06:28:18.599Z,18.80
2022-12-17T06:31:10.727Z,19.83
2022-12-17T06:33:56.190Z,18.97
2022-12-17T06:36:42.614Z,19.93
2022-12-17T06:39:27.424Z,19.57
2022-12-17T06:42:12.623Z,19.27
2022-12-17T06:44:57.394Z,19.33
2022-12-17T06:47:42.382Z,17.60
2022-12-17T06:50:27.888Z,19.60
2022-12-17T06:53:18.348Z,18.97
2022-12-17T06:55:59.720Z,21.33
2022-12-17T06:58:44.799Z,19.50
2022-12-17T07:01:29.877Z,20.03
2022-12-17T07:04:15.240Z,21.13
2022-12-17T07:07:14.503Z,19.33
2022-12-17T07:10:00.633Z,18.37
2022-12-17T07:12:45.848Z,19.93
2022-12-17T07:15:30.723Z,15.00
2022-12-17T07:18:16.487Z,19.20
2022-12-17T07:21:01.546Z,18.10
2022-12-17T07:23:46.682Z,18.73
2022-12-17T07:26:33.486Z,17.60
2022-12-17T07:29:18.913Z,17.00
2022-12-17T07:32:04.031Z,14.20
2022-12-17T07:34:49.169Z,15.40
2022-12-17T07:37:34.029Z,7.77
2022-12-17T07:40:18.879Z,18.70
2022-12-17T07:43:05.212Z,15.63
2022-12-17T07:45:51.085Z,17.43
2022-12-17T07:48:36.296Z,13.43
2022-12-17T07:51:21.070Z,17.70
2022-12-17T07:54:05.923Z,16.97
2022-12-17T07:56:50.855Z,17.27
2022-12-17T07:59:33.607Z,13.00
2022-12-17T08:02:19.252Z,16.77
2022-12-17T08:05:04.290Z,16.97
2022-12-17T08:07:49.140Z,18.63
2022-12-17T08:10:34.623Z,13.27
2022-12-17T08:13:20.915Z,17.13
2022-12-17T08:16:07.733Z,16.93
2022-12-17T08:18:52.884Z,9.57
2022-12-17T08:21:37.659Z,13.40
2022-12-17T08:24:19.406Z,14.30
2022-12-17T08:27:04.202Z,17.00
2022-12-17T08:29:45.824Z,16.47
2022-12-17T08:32:32.840Z,16.70
2022-12-17T08:35:17.847Z,18.50
2022-12-17T08:38:02.677Z,16.30
2022-12-17T08:40:47.751Z,19.13
2022-12-17T08:43:32.534Z,15.40
2022-12-17T08:46:17.603Z,15.60
2022-12-17T08:49:03.952Z,15.57
2022-12-17T08:51:49.240Z,15.20
2022-12-17T08:54:34.252Z,15.10
2022-12-17T08:57:30.676Z,16.00
2022-12-17T09:00:16.544Z,14.47
2022-12-17T09:03:01.649Z,13.63
2022-12-17T09:05:48.228Z,12.67
2022-12-17T09:08:33.400Z,11.10
2022-12-17T09:11:18.983Z,7.40
2022-12-17T09:14:03.959Z,13.53
2022-12-17T09:16:48.923Z,7.87
2022-12-17T09:19:33.392Z,10.17
2022-12-17T09:22:19.393Z,12.67
2022-12-17T09:25:04.422Z,7.07
2022-12-17T09:27:49.539Z,6.83
2022-12-17T09:30:34.881Z,7.17
2022-12-17T09:33:19.904Z,15.17
2022-12-17T09:36:04.765Z,8.93
2022-12-17T09:38:50.979Z,12.83
2022-12-17T09:41:42.019Z,13.20
2022-12-17T09:44:41.936Z,7.80
2022-12-17T09:47:42.391Z,12.53
2022-12-17T09:50:30.724Z,9.17
2022-12-17T09:53:16.630Z,14.83
2022-12-17T09:56:05.744Z,10.80
2022-12-17T09:58:53.684Z,8.77
2022-12-17T10:01:40.164Z,8.03
2022-12-17T10:04:28.803Z,10.87
2022-12-17T10:07:28.235Z,6.00
2022-12-17T10:10:13.187Z,11.10
2022-12-17T10:12:59.458Z,11.87
2022-12-17T10:15:44.650Z,8.17
2022-12-17T10:18:30.816Z,9.60
2022-12-17T10:21:16.984Z,13.60
2022-12-17T10:24:02.149Z,9.80
2022-12-17T10:26:48.084Z,7.93
2022-12-17T10:29:35.377Z,8.33
2022-12-17T10:32:27.603Z,6.83
2022-12-17T10:35:12.877Z,11.93
2022-12-17T10:37:57.886Z,13.23
2022-12-17T10:40:44.344Z,12.70
2022-12-17T10:43:42.549Z,12.10
2022-12-17T10:46:28.630Z,11.53
2022-12-17T10:49:23.510Z,13.70
2022-12-17T10:52:08.814Z,10.00
2022-12-17T10:54:53.847Z,8.93
2022-12-17T10:57:42.234Z,13.37
2022-12-17T11:00:38.502Z,12.27
2022-12-17T11:03:25.051Z,11.37
2022-12-17T11:06:12.187Z,11.63
2022-12-17T11:08:58.215Z,9.53
2022-12-17T11:11:43.719Z,13.63
2022-12-17T11:14:30.508Z,10.07
2022-12-17T11:17:17.165Z,13.13
2022-12-17T11:20:19.537Z,10.13
2022-12-17T11:23:06.320Z,10.30
2022-12-17T11:25:54.542Z,12.13
2022-12-17T11:28:41.002Z,7.10
2022-12-17T11:31:49.570Z,10.20
2022-12-17T11:34:41.983Z,9.60
2022-12-17T11:37:32.823Z,9.83
2022-12-17T11:40:21.637Z,10.33
2022-12-17T11:43:11.074Z,6.53
2022-12-17T11:46:01.883Z,6.97
2022-12-17T11:48:51.272Z,2.13
2022-12-17T11:51:47.700Z,8.27
2022-12-17T11:54:37.804Z,8.73
2022-12-17T11:57:26.781Z,9.33
2022-12-17T12:00:16.757Z,5.93
2022-12-17T12:03:03.769Z,12.87
2022-12-17T12:05:56.642Z,12.00
2022-12-17T12:08:42.730Z,11.73
2022-12-17T12:11:34.444Z,12.83
2022-12-17T12:14:20.280Z,12.20
2022-12-17T12:17:09.552Z,11.07
2022-12-17T12:20:00.521Z,10.77
2022-12-17T12:22:49.945Z,11.57
2022-12-17T12:25:40.851Z,12.40
2022-12-17T12:28:32.179Z,13.67
2022-12-17T12:31:24.230Z,10.57
2022-12-17T12:34:11.950Z,11.63
2022-12-17T12:36:57.707Z,10.53
2022-12-17T12:39:47.735Z,11.27
2022-12-17T12:42:36.030Z,10.37
2022-12-17T12:45:25.170Z,8.87
2022-12-17T12:48:13.451Z,9.20
2022-12-17T12:51:01.982Z,10.97
2022-12-17T12:53:52.192Z,10.10
2022-12-17T12:56:47.322Z,10.13
2022-12-17T12:59:40.816Z,10.53
2022-12-17T13:02:33.528Z,9.50
2022-12-17T13:05:24.615Z,6.83
2022-12-17T13:08:02.319Z,3.03
2022-12-17T13:10:31.222Z,4.80
2022-12-17T13:13:01.077Z,9.70
2022-12-17T13:15:33.640Z,9.77
2022-12-17T13:18:06.714Z,8.47
2022-12-17T13:20:35.388Z,9.93
2022-12-17T13:23:14.681Z,7.43
2022-12-17T13:25:42.695Z,9.97
2022-12-17T13:28:25.929Z,4.47
2022-12-17T13:31:01.860Z,8.77
2022-12-17T13:33:32.103Z,9.20
2022-12-17T13:36:05.258Z,8.67
2022-12-17T13:38:41.483Z,9.30
2022-12-17T13:41:10.736Z,9.37
2022-12-17T13:43:41.126Z,9.00
2022-12-17T13:46:18.852Z,10.30
2022-12-17T13:48:58.181Z,9.43
2022-12-17T13:51:26.846Z,5.60
2022-12-17T13:53:55.749Z,10.60
2022-12-17T13:56:27.074Z,10.80
2022-12-17T13:58:55.884Z,11.40
2022-12-17T14:01:26.120Z,11.63
2022-12-17T14:04:06.138Z,9.47
2022-12-17T14:06:36.189Z,8.77
2022-12-17T14:09:04.689Z,9.93
2022-12-17T14:11:50.238Z,10.87
2022-12-17T14:14:21.091Z,8.70
2022-12-17T14:16:50.931Z,10.53
2022-12-17T14:19:19.959Z,8.57
2022-12-17T14:21:47.902Z,7.87
2022-12-17T14:24:15.878Z,7.90
2022-12-17T14:26:53.492Z,9.70
2022-12-17T14:29:24.990Z,9.50
2022-12-17T14:31:53.344Z,11.10
2022-12-17T14:34:22.444Z,10.73
2022-12-17T14:36:55.173Z,10.87
2022-12-17T14:39:26.192Z,11.90
2022-12-17T14:42:11.955Z,10.43
2022-12-17T14:44:43.208Z,6.17
2022-12-17T14:47:14.785Z,10.33
2022-12-17T14:49:55.232Z,10.97
2022-12-17T14:52:25.770Z,10.20
2022-12-17T14:54:53.180Z,10.97
2022-12-17T14:57:21.680Z,10.87
2022-12-17T14:59:49.175Z,11.57
2022-12-17T15:02:23.552Z,10.37
2022-12-17T15:04:53.561Z,10.97
2022-12-17T15:07:24.424Z,9.57
2022-12-17T15:09:52.715Z,10.33
2022-12-17T15:12:20.520Z,10.67
2022-12-17T15:14:48.182Z,11.07
2022-12-17T15:17:16.281Z,10.13
2022-12-17T15:19:44.198Z,10.87
2022-12-17T15:22:16.631Z,10.80
2022-12-17T15:24:46.911Z,8.93
2022-12-17T15:27:14.750Z,10.37
2022-12-17T15:29:42.221Z,8.63
2022-12-17T15:32:13.392Z,9.07
2022-12-17T15:34:41.067Z,8.57
2022-12-17T15:37:08.479Z,8.00
2022-12-17T15:39:37.404Z,8.37
2022-12-17T15:42:22.612Z,9.33
2022-12-17T15:44:50.187Z,8.27
2022-12-17T15:47:17.859Z,8.40
2022-12-17T15:49:46.814Z,8.07
2022-12-17T15:52:15.111Z,7.87
2022-12-17T15:54:44.196Z,8.20
2022-12-17T15:57:18.211Z,8.97
2022-12-17T15:59:46.655Z,9.03
2022-12-17T16:02:14.448Z,8.67
2022-12-17T16:04:41.991Z,8.10
2022-12-17T16:07:09.441Z,8.03
2022-12-17T16:09:36.972Z,8.53
2022-12-17T16:12:05.999Z,9.23
2022-12-17T16:14:33.538Z,9.23
2022-12-17T16:17:00.989Z,9.37
2022-12-17T16:19:28.450Z,9.73
2022-12-17T16:21:55.859Z,8.40
2022-12-17T16:24:23.927Z,8.53
2022-12-17T16:26:51.428Z,8.57
2022-12-17T16:29:20.286Z,8.97
2022-12-17T16:31:47.748Z,7.90
2022-12-17T16:34:15.570Z,7.87
2022-12-17T16:36:43.049Z,7.77
2022-12-17T16:39:15.484Z,7.63
2022-12-17T16:41:43.039Z,6.90
2022-12-17T16:44:10.552Z,7.40
2022-12-17T16:46:40.126Z,7.30
2022-12-17T16:49:08.742Z,7.00
2022-12-17T16:51:36.511Z,7.23
2022-12-17T16:54:06.032Z,6.77
2022-12-17T16:56:39.696Z,6.40
2022-12-17T16:59:08.779Z,6.33
2022-12-17T17:01:37.132Z,7.70
2022-12-17T17:04:06.706Z,7.47
2022-12-17T17:06:38.365Z,6.60
2022-12-17T17:09:06.197Z,6.67
2022-12-17T17:11:34.056Z,5.97
2022-12-17T17:14:01.510Z,6.70
2022-12-17T17:16:28.987Z,6.70
2022-12-17T17:18:56.556Z,6.60
2022-12-17T17:21:26.918Z,6.00
2022-12-17T17:23:55.243Z,6.37
2022-12-17T17:26:25.762Z,6.07
2022-12-17T17:28:53.209Z,6.70
2022-12-17T17:31:21.822Z,5.73
2022-12-17T17:33:51.320Z,8.73
2022-12-17T17:36:19.924Z,7.03
2022-12-17T17:38:49.758Z,6.63
2022-12-17T17:41:18.932Z,4.23
2022-12-17T17:43:47.039Z,6.43
2022-12-17T17:46:15.663Z,7.60
2022-12-17T17:48:44.355Z,8.50
2022-12-17T17:51:13.465Z,6.90
2022-12-17T17:53:43.243Z,7.67
2022-12-17T17:56:18.030Z,6.63
2022-12-17T17:58:47.349Z,6.97
2022-12-17T18:01:17.041Z,7.00
2022-12-17T18:03:44.655Z,8.07
2022-12-17T18:06:13.105Z,8.13
2022-12-17T18:08:42.246Z,9.00
2022-12-17T18:11:11.263Z,9.57
2022-12-17T18:13:55.518Z,6.53
2022-12-17T18:16:24.749Z,6.23
2022-12-17T18:18:53.778Z,5.87
2022-12-17T18:21:21.802Z,11.30
2022-12-17T18:23:50.305Z,11.43
2022-12-17T18:26:19.723Z,12.73
2022-12-17T18:28:49.867Z,10.47
2022-12-17T18:31:19.751Z,10.87
2022-12-17T18:33:49.862Z,10.10
2022-12-17T18:36:19.088Z,10.47
2022-12-17T18:38:49.175Z,9.53
2022-12-17T18:41:36.376Z,8.40
2022-12-17T18:44:06.252Z,8.37
2022-12-17T18:46:34.905Z,8.00
2022-12-17T18:49:04.612Z,7.57
2022-12-17T18:51:32.547Z,6.90
2022-12-17T18:54:00.639Z,7.20
2022-12-17T18:56:59.546Z,6.13
2022-12-17T18:59:23.050Z,5.60
2022-12-17T19:01:53.884Z,5.33
2022-12-17T19:04:21.987Z,5.40
2022-12-17T19:06:52.679Z,4.87
2022-12-17T19:09:21.748Z,4.87
2022-12-17T19:11:50.054Z,4.93
2022-12-17T19:14:21.956Z,4.23
2022-12-17T19:16:50.159Z,4.93
2022-12-17T19:19:21.306Z,5.70
2022-12-17T19:21:49.644Z,5.10
2022-12-17T19:24:18.868Z,5.40
2022-12-17T19:26:46.683Z,5.00
2022-12-17T19:29:15.075Z,6.03
2022-12-17T19:31:44.596Z,5.60
2022-12-17T19:34:13.619Z,5.87
2022-12-17T19:36:42.186Z,5.10
2022-12-17T19:39:11.753Z,4.77
2022-12-17T19:41:39.778Z,7.57
2022-12-17T19:44:09.323Z,6.47
2022-12-17T19:46:37.208Z,6.37
2022-12-17T19:49:07.565Z,6.40
2022-12-17T19:51:35.158Z,7.70
2022-12-17T19:54:08.444Z,6.23
2022-12-17T19:56:37.223Z,6.73
2022-12-17T19:59:07.005Z,5.40
2022-12-17T20:01:36.336Z,4.57
2022-12-17T20:04:04.425Z,4.90
2022-12-17T20:06:34.331Z,5.27
2022-12-17T20:09:04.378Z,6.50
2022-12-17T20:11:35.172Z,4.87
2022-12-17T20:14:04.354Z,5.00
2022-12-17T20:16:33.203Z,8.20
2022-12-17T20:19:01.114Z,9.47
2022-12-17T20:21:28.580Z,13.33
2022-12-17T20:23:57.505Z,10.57
2022-12-17T20:26:26.727Z,6.77
2022-12-17T20:28:55.463Z,8.43
2022-12-17T20:31:23.061Z,6.90
2022-12-17T20:33:50.567Z,9.40
2022-12-17T20:36:19.641Z,7.73
2022-12-17T20:38:47.314Z,8.87
2022-12-17T20:41:17.111Z,8.70
2022-12-17T20:43:45.247Z,8.43
2022-12-17T20:46:13.360Z,8.60
2022-12-17T20:48:42.826Z,10.03
2022-12-17T20:51:11.983Z,9.17
2022-12-17T20:53:40.523Z,8.97
2022-12-17T20:56:09.854Z,10.57
2022-12-17T20:58:40.654Z,9.23
2022-12-17T21:01:10.261Z,9.13
2022-12-17T21:03:38.573Z,10.03
2022-12-17T21:06:08.145Z,10.93
2022-12-17T21:08:37.027Z,10.07
2022-12-17T21:11:05.999Z,10.70
2022-12-17T21:13:34.801Z,8.00
2022-12-17T21:16:06.605Z,9.90
2022-12-17T21:18:34.918Z,11.33
2022-12-17T21:21:04.052Z,9.13
2022-12-17T21:23:38.878Z,9.13
2022-12-17T21:26:08.666Z,12.87
2022-12-17T21:28:39.025Z,9.67
2022-12-17T21:31:15.037Z,10.27
2022-12-17T21:33:42.605Z,10.47
2022-12-17T21:36:10.869Z,10.13
2022-12-17T21:38:38.882Z,7.43
2022-12-17T21:41:09.553Z,7.80
2022-12-17T21:43:37.793Z,5.13
2022-12-17T21:46:05.913Z,5.17
2022-12-17T21:48:41.373Z,5.83
2022-12-17T21:51:10.721Z,4.50
2022-12-17T21:53:41.914Z,4.40
2022-12-17T21:56:10.392Z,4.67
2022-12-17T21:58:38.561Z,4.87
2022-12-17T22:01:15.876Z,6.10
2022-12-17T22:03:53.697Z,5.77
2022-12-17T22:06:22.446Z,5.27
2022-12-17T22:08:52.287Z,5.70
2022-12-17T22:11:25.643Z,6.37
2022-12-17T22:14:08.581Z,5.50
2022-12-17T22:16:41.989Z,3.87
2022-12-17T22:19:11.894Z,5.50
2022-12-17T22:21:40.779Z,5.93
2022-12-17T22:24:08.973Z,5.53
2022-12-17T22:26:36.526Z,6.47
2022-12-17T22:29:04.228Z,5.20
2022-12-17T22:31:49.131Z,4.90
2022-12-17T22:34:34.907Z,5.40
2022-12-17T22:39:55.249Z,5.20
2022-12-17T22:44:28.484Z,5.57
2022-12-17T22:44:45.170Z,6.60
2022-12-17T22:45:46.978Z,6.10
2022-12-17T22:48:14.932Z,10.30
2022-12-17T22:50:52.196Z,10.50
2022-12-17T22:53:29.901Z,7.90
2022-12-17T22:56:12.431Z,6.23
2022-12-17T22:58:43.735Z,6.37
2022-12-17T23:01:11.210Z,7.90
2022-12-17T23:03:39.258Z,6.67
2022-12-17T23:06:09.524Z,7.53
2022-12-17T23:08:37.511Z,6.17
2022-12-17T23:11:08.661Z,3.53
2022-12-17T23:13:36.814Z,4.80
2022-12-17T23:16:04.705Z,4.43
2022-12-17T23:18:33.000Z,4.20
2022-12-17T23:21:06.973Z,3.47
2022-12-17T23:23:36.163Z,4.47
2022-12-17T23:26:08.331Z,5.10
2022-12-17T23:28:35.974Z,4.97
2022-12-17T23:31:07.928Z,4.87
2022-12-17T23:33:36.149Z,5.07
2022-12-17T23:36:05.154Z,5.23
2022-12-17T23:38:33.871Z,4.67
2022-12-17T23:41:07.180Z,4.00
2022-12-17T23:43:34.640Z,5.03
2022-12-17T23:46:02.240Z,3.93
2022-12-17T23:48:30.837Z,3.27
2022-12-17T23:50:58.464Z,3.77
2022-12-17T23:53:26.247Z,4.97
2022-12-17T23:55:53.760Z,4.50
2022-12-17T23:58:23.063Z,4.03
